createdAt,value
2023-02-06T00:00:36.472Z,98.06
2023-02-06T00:03:04.444Z,97.97
2023-02-06T00:05:31.499Z,97.98
2023-02-06T00:07:58.151Z,97.68
2023-02-06T00:10:25.467Z,98.24
2023-02-06T00:12:52.853Z,97.53
2023-02-06T00:15:20.256Z,97.33
2023-02-06T00:17:46.873Z,97.99
2023-02-06T00:20:14.237Z,97.39
2023-02-06T00:22:41.337Z,97.48
2023-02-06T00:25:08.077Z,97.33
2023-02-06T00:27:35.346Z,97.87
2023-02-06T00:30:02.712Z,97.39
2023-02-06T00:32:29.579Z,97.35
2023-02-06T00:34:56.184Z,97.90
2023-02-06T00:37:22.979Z,97.98
2023-02-06T00:39:49.908Z,97.78
2023-02-06T00:42:17.100Z,98.22
2023-02-06T00:44:43.913Z,97.73
2023-02-06T00:47:10.496Z,98.13
2023-02-06T00:49:37.292Z,97.95
2023-02-06T00:52:04.012Z,97.45
2023-02-06T00:54:30.945Z,97.72
2023-02-06T00:56:57.756Z,98.04
2023-02-06T00:59:25.007Z,97.99
2023-02-06T01:01:52.048Z,97.91
2023-02-06T01:04:19.533Z,97.73
2023-02-06T01:06:46.173Z,98.11
2023-02-06T01:09:13.109Z,98.68
2023-02-06T01:11:40.132Z,99.17
2023-02-06T01:14:07.277Z,98.22
2023-02-06T01:16:33.816Z,98.13
2023-02-06T01:19:00.791Z,97.86
2023-02-06T01:21:27.610Z,98.07
2023-02-06T01:23:55.528Z,98.29
2023-02-06T01:26:24.151Z,97.98
2023-02-06T01:28:50.712Z,98.52
2023-02-06T01:31:17.761Z,98.56
2023-02-06T01:33:45.137Z,98.87
2023-02-06T01:36:12.425Z,99.26
2023-02-06T01:38:39.938Z,99.49
2023-02-06T01:41:07.336Z,98.82
2023-02-06T01:43:35.830Z,98.81
2023-02-06T01:46:02.792Z,98.64
2023-02-06T01:48:37.884Z,98.90
2023-02-06T01:51:05.895Z,99.40
2023-02-06T01:53:33.609Z,99.34
2023-02-06T01:56:03.079Z,99.29
2023-02-06T01:58:33.782Z,98.97
2023-02-06T02:01:01.600Z,99.18
2023-02-06T02:03:30.111Z,99.15
2023-02-06T02:06:00.171Z,99.19
2023-02-06T02:08:36.154Z,99.59
2023-02-06T02:11:04.516Z,99.39
2023-02-06T02:13:34.234Z,100.00
2023-02-06T02:16:25.309Z,99.88
2023-02-06T02:18:54.832Z,99.98
2023-02-06T02:21:40.758Z,99.86
2023-02-06T02:24:27.305Z,99.86
2023-02-06T02:27:17.388Z,100.00
2023-02-06T02:29:54.301Z,99.90
2023-02-06T02:32:40.775Z,99.49
2023-02-06T02:35:10.803Z,99.30
2023-02-06T02:37:45.823Z,99.55
2023-02-06T02:40:24.859Z,100.00
2023-02-06T02:42:52.102Z,100.00
2023-02-06T02:45:22.800Z,100.00
2023-02-06T02:47:56.277Z,100.00
2023-02-06T02:50:23.155Z,100.00
2023-02-06T02:52:50.866Z,100.00
2023-02-06T02:55:20.781Z,99.89
2023-02-06T02:57:51.411Z,99.85
2023-02-06T03:00:19.136Z,100.00
2023-02-06T03:02:47.826Z,99.93
2023-02-06T03:05:16.819Z,100.00
2023-02-06T03:07:53.661Z,100.00
2023-02-06T03:10:23.528Z,100.00
2023-02-06T03:13:06.809Z,100.00
2023-02-06T03:15:53.380Z,100.00
2023-02-06T03:18:47.366Z,100.00
2023-02-06T03:21:16.950Z,99.85
2023-02-06T03:23:45.372Z,100.00
2023-02-06T03:26:16.419Z,99.63
2023-02-06T03:28:45.699Z,100.00
2023-02-06T03:31:15.298Z,99.32
2023-02-06T03:33:46.407Z,99.83
2023-02-06T03:36:17.155Z,99.54
2023-02-06T03:38:45.972Z,99.77
2023-02-06T03:41:13.250Z,100.00
2023-02-06T03:43:42.711Z,100.00
2023-02-06T03:46:12.592Z,100.00
2023-02-06T03:48:43.793Z,99.93
2023-02-06T03:51:17.829Z,100.00
2023-02-06T03:53:46.558Z,100.00
2023-02-06T03:56:19.401Z,100.00
2023-02-06T03:58:47.414Z,100.00
2023-02-06T04:01:14.808Z,100.00
2023-02-06T04:03:41.532Z,100.00
2023-02-06T04:06:08.312Z,100.00
2023-02-06T04:08:35.117Z,100.00
2023-02-06T04:11:02.210Z,100.00
2023-02-06T04:13:30.213Z,100.00
2023-02-06T04:15:58.070Z,100.00
2023-02-06T04:18:25.517Z,100.00
2023-02-06T04:20:52.980Z,100.00
2023-02-06T04:23:20.388Z,100.00
2023-02-06T04:25:48.038Z,100.00
2023-02-06T04:28:15.167Z,100.00
2023-02-06T04:30:42.152Z,100.00
2023-02-06T04:33:08.876Z,100.00
2023-02-06T04:35:35.899Z,100.00
2023-02-06T04:38:02.772Z,100.00
2023-02-06T04:40:29.547Z,100.00
2023-02-06T04:42:57.043Z,100.00
2023-02-06T04:45:24.237Z,100.00
2023-02-06T04:47:51.613Z,100.00
2023-02-06T04:50:19.234Z,100.00
2023-02-06T04:52:46.135Z,100.00
2023-02-06T04:55:13.480Z,100.00
2023-02-06T04:57:40.152Z,100.00
2023-02-06T05:00:07.173Z,100.00
2023-02-06T05:02:39.560Z,100.00
2023-02-06T05:05:07.598Z,100.00
2023-02-06T05:07:34.912Z,100.00
2023-02-06T05:10:02.121Z,100.00
2023-02-06T05:12:29.705Z,100.00
2023-02-06T05:14:57.127Z,100.00
2023-02-06T05:17:24.438Z,100.00
2023-02-06T05:19:51.929Z,100.00
2023-02-06T05:22:18.546Z,100.00
2023-02-06T05:24:46.032Z,100.00
2023-02-06T05:27:13.372Z,100.00
2023-02-06T05:29:39.874Z,100.00
2023-02-06T05:32:06.609Z,100.00
2023-02-06T05:34:33.933Z,100.00
2023-02-06T05:37:00.579Z,100.00
2023-02-06T05:39:27.465Z,100.00
2023-02-06T05:41:55.022Z,100.00
2023-02-06T05:44:22.026Z,100.00
2023-02-06T05:46:49.883Z,100.00
2023-02-06T05:49:17.236Z,100.00
2023-02-06T05:51:44.461Z,100.00
2023-02-06T05:54:11.366Z,100.00
2023-02-06T05:56:38.098Z,100.00
2023-02-06T05:59:04.881Z,100.00
2023-02-06T06:01:32.186Z,100.00
2023-02-06T06:04:00.172Z,100.00
2023-02-06T06:06:27.063Z,100.00
2023-02-06T06:08:54.396Z,100.00
2023-02-06T06:11:20.958Z,100.00
2023-02-06T06:13:47.632Z,100.00
2023-02-06T06:16:14.293Z,100.00
2023-02-06T06:18:41.320Z,100.00
2023-02-06T06:21:08.850Z,100.00
2023-02-06T06:23:36.092Z,100.00
2023-02-06T06:26:03.135Z,100.00
2023-02-06T06:28:30.035Z,100.00
2023-02-06T06:31:01.420Z,100.00
2023-02-06T06:33:28.698Z,100.00
2023-02-06T06:35:55.923Z,100.00
2023-02-06T06:38:23.279Z,100.00
2023-02-06T06:40:50.036Z,100.00
2023-02-06T06:43:16.701Z,100.00
2023-02-06T06:45:43.696Z,100.00
2023-02-06T06:48:10.739Z,100.00
2023-02-06T06:50:37.417Z,100.00
2023-02-06T06:53:04.295Z,100.00
2023-02-06T06:55:30.818Z,100.00
2023-02-06T06:57:57.734Z,100.00
2023-02-06T07:00:25.078Z,100.00
2023-02-06T07:02:52.480Z,100.00
2023-02-06T07:05:20.141Z,100.00
2023-02-06T07:07:46.890Z,100.00
2023-02-06T07:10:14.185Z,100.00
2023-02-06T07:12:41.721Z,100.00
2023-02-06T07:15:08.729Z,100.00
2023-02-06T07:17:36.638Z,100.00
2023-02-06T07:20:03.874Z,100.00
2023-02-06T07:22:30.514Z,100.00
2023-02-06T07:24:58.072Z,100.00
2023-02-06T07:27:25.001Z,100.00
2023-02-06T07:29:51.763Z,100.00
2023-02-06T07:32:18.584Z,100.00
2023-02-06T07:34:45.068Z,100.00
2023-02-06T07:37:11.977Z,100.00
2023-02-06T07:39:38.991Z,100.00
2023-02-06T07:42:05.887Z,100.00
2023-02-06T07:44:32.611Z,100.00
2023-02-06T07:47:00.001Z,100.00
2023-02-06T07:49:26.858Z,100.00
2023-02-06T07:51:53.958Z,100.00
2023-02-06T07:54:20.929Z,100.00
2023-02-06T07:56:47.765Z,100.00
2023-02-06T07:59:14.875Z,100.00
2023-02-06T08:01:41.545Z,100.00
2023-02-06T08:04:08.692Z,100.00
2023-02-06T08:06:35.805Z,100.00
2023-02-06T08:09:02.948Z,100.00
2023-02-06T08:11:31.009Z,100.00
2023-02-06T08:13:57.793Z,100.00
2023-02-06T08:16:24.982Z,100.00
2023-02-06T08:18:52.321Z,100.00
2023-02-06T08:21:21.514Z,100.00
2023-02-06T08:23:53.280Z,100.00
2023-02-06T08:26:19.834Z,100.00
2023-02-06T08:28:48.148Z,100.00
2023-02-06T08:31:17.491Z,100.00
2023-02-06T08:33:45.437Z,100.00
2023-02-06T08:36:12.780Z,100.00
2023-02-06T08:38:39.762Z,100.00
2023-02-06T08:41:14.094Z,100.00
2023-02-06T08:43:40.819Z,100.00
2023-02-06T08:46:07.590Z,100.00
2023-02-06T08:48:35.022Z,100.00
2023-02-06T08:51:03.214Z,100.00
2023-02-06T08:53:29.936Z,100.00
2023-02-06T08:56:00.370Z,100.00
2023-02-06T08:58:27.510Z,100.00
2023-02-06T09:00:54.637Z,100.00
2023-02-06T09:03:22.741Z,100.00
2023-02-06T09:05:50.303Z,100.00
2023-02-06T09:08:17.737Z,100.00
2023-02-06T09:10:44.373Z,100.00
2023-02-06T09:13:11.751Z,100.00
2023-02-06T09:15:38.613Z,100.00
2023-02-06T09:18:05.629Z,100.00
2023-02-06T09:20:32.291Z,100.00
2023-02-06T09:22:58.827Z,100.00
2023-02-06T09:25:26.209Z,100.00
2023-02-06T09:27:52.967Z,100.00
2023-02-06T09:30:20.355Z,100.00
2023-02-06T09:32:47.017Z,100.00
2023-02-06T09:35:13.890Z,100.00
2023-02-06T09:37:40.706Z,100.00
2023-02-06T09:40:08.365Z,100.00
2023-02-06T09:42:37.899Z,100.00
2023-02-06T09:45:19.923Z,100.00
2023-02-06T09:47:52.403Z,100.00
2023-02-06T09:50:23.997Z,100.00
2023-02-06T09:53:05.832Z,100.00
2023-02-06T09:55:40.018Z,100.00
2023-02-06T09:58:13.455Z,100.00
2023-02-06T10:00:41.465Z,100.00
2023-02-06T10:03:30.627Z,100.00
2023-02-06T10:06:08.930Z,100.00
2023-02-06T10:08:46.118Z,100.00
2023-02-06T10:11:16.395Z,100.00
2023-02-06T10:13:49.835Z,99.90
2023-02-06T10:16:20.159Z,100.00
2023-02-06T10:18:51.749Z,100.00
2023-02-06T10:21:27.548Z,100.00
2023-02-06T10:23:58.118Z,99.84
2023-02-06T10:26:25.210Z,99.37
2023-02-06T10:28:54.091Z,99.43
2023-02-06T10:31:21.155Z,99.15
2023-02-06T10:34:01.322Z,98.86
2023-02-06T10:36:46.059Z,98.28
2023-02-06T10:39:31.539Z,97.93
2023-02-06T10:42:15.321Z,98.42
2023-02-06T10:44:51.240Z,98.37
2023-02-06T10:47:23.312Z,98.01
2023-02-06T10:49:53.429Z,97.36
2023-02-06T10:52:23.345Z,96.25
2023-02-06T10:54:52.035Z,96.52
2023-02-06T10:57:24.906Z,95.60
2023-02-06T10:59:53.970Z,95.54
2023-02-06T11:02:25.617Z,95.14
2023-02-06T11:05:24.951Z,94.53
2023-02-06T11:07:56.142Z,93.61
2023-02-06T11:10:24.457Z,93.23
2023-02-06T11:13:01.603Z,93.67
2023-02-06T11:15:34.603Z,93.77
2023-02-06T11:18:03.266Z,92.63
2023-02-06T11:20:32.579Z,90.76
2023-02-06T11:23:20.126Z,92.51
2023-02-06T11:25:50.524Z,94.01
2023-02-06T11:28:19.112Z,94.40
2023-02-06T11:30:57.993Z,94.31
2023-02-06T11:33:33.877Z,93.98
2023-02-06T11:36:01.309Z,93.52
2023-02-06T11:38:29.510Z,93.01
2023-02-06T11:40:56.498Z,93.02
2023-02-06T11:43:24.734Z,91.81
2023-02-06T11:46:04.650Z,91.21
2023-02-06T11:48:36.892Z,90.52
2023-02-06T11:51:04.836Z,90.05
2023-02-06T11:53:31.730Z,89.70
2023-02-06T11:56:01.090Z,90.65
2023-02-06T11:58:28.435Z,90.03
2023-02-06T12:01:04.295Z,90.53
2023-02-06T12:03:36.906Z,90.26
2023-02-06T12:06:42.147Z,90.28
2023-02-06T12:09:12.806Z,89.12
2023-02-06T12:12:12.400Z,89.74
2023-02-06T12:14:42.312Z,89.50
2023-02-06T12:17:22.267Z,89.92
2023-02-06T12:19:51.491Z,90.71
2023-02-06T12:22:21.105Z,90.18
2023-02-06T12:24:49.966Z,90.64
2023-02-06T12:27:33.031Z,90.82
2023-02-06T12:30:03.447Z,91.17
2023-02-06T12:32:37.824Z,91.31
2023-02-06T12:35:21.901Z,91.06
2023-02-06T12:37:53.546Z,91.52
2023-02-06T12:40:20.071Z,92.17
2023-02-06T12:42:59.133Z,92.45
2023-02-06T12:45:32.365Z,93.24
2023-02-06T12:48:02.377Z,92.66
2023-02-06T12:50:32.630Z,92.64
2023-02-06T12:53:04.696Z,93.00
2023-02-06T12:55:37.464Z,93.22
2023-02-06T12:58:05.586Z,92.14
2023-02-06T13:00:42.440Z,92.06
2023-02-06T13:03:21.995Z,92.13
2023-02-06T13:06:00.154Z,91.91
2023-02-06T13:08:36.287Z,90.94
2023-02-06T13:11:05.831Z,91.19
2023-02-06T13:13:35.111Z,91.62
2023-02-06T13:16:02.960Z,91.15
2023-02-06T13:18:41.971Z,91.23
2023-02-06T13:21:15.152Z,91.07
2023-02-06T13:23:49.449Z,90.35
2023-02-06T13:26:16.794Z,90.29
2023-02-06T13:28:46.034Z,89.82
2023-02-06T13:31:24.421Z,89.28
2023-02-06T13:33:53.579Z,89.67
2023-02-06T13:36:25.763Z,88.47
2023-02-06T13:38:57.042Z,88.53
2023-02-06T13:41:30.831Z,88.88
2023-02-06T13:43:57.579Z,87.95
2023-02-06T13:46:33.387Z,88.26
2023-02-06T13:49:06.182Z,88.34
2023-02-06T13:51:44.141Z,87.96
2023-02-06T13:54:31.611Z,88.07
2023-02-06T13:57:17.254Z,88.53
2023-02-06T13:59:47.449Z,88.10
2023-02-06T14:02:23.830Z,87.79
2023-02-06T14:04:51.357Z,88.65
2023-02-06T14:07:53.318Z,89.12
2023-02-06T14:10:36.669Z,88.88
2023-02-06T14:13:12.831Z,88.46
2023-02-06T14:15:58.728Z,88.78
2023-02-06T14:18:36.201Z,88.82
2023-02-06T14:21:12.864Z,89.42
2023-02-06T14:24:06.090Z,88.97
2023-02-06T14:26:57.274Z,88.82
2023-02-06T14:29:27.003Z,87.95
2023-02-06T14:32:06.194Z,88.37
2023-02-06T14:34:42.372Z,88.61
2023-02-06T14:37:35.501Z,88.15
2023-02-06T14:40:05.582Z,89.05
2023-02-06T14:42:40.386Z,87.93
2023-02-06T14:45:16.519Z,88.24
2023-02-06T14:47:44.133Z,87.22
2023-02-06T14:50:30.453Z,86.77
2023-02-06T14:53:00.048Z,87.61
2023-02-06T14:55:38.184Z,87.53
2023-02-06T14:58:06.514Z,87.37
2023-02-06T15:00:33.605Z,88.45
2023-02-06T15:03:05.352Z,88.73
2023-02-06T15:05:33.283Z,89.22
2023-02-06T15:08:02.432Z,88.95
2023-02-06T15:10:31.326Z,88.81
2023-02-06T15:12:58.046Z,88.91
2023-02-06T15:15:26.889Z,88.46
2023-02-06T15:17:56.310Z,88.58
2023-02-06T15:20:28.676Z,89.18
2023-02-06T15:23:08.002Z,89.75
2023-02-06T15:25:58.988Z,89.62
2023-02-06T15:28:28.208Z,90.11
2023-02-06T15:30:56.572Z,90.17
2023-02-06T15:33:33.165Z,90.30
2023-02-06T15:36:01.507Z,90.48
2023-02-06T15:38:29.294Z,91.53
2023-02-06T15:40:59.034Z,91.70
2023-02-06T15:43:27.007Z,91.60
2023-02-06T15:45:56.145Z,91.42
2023-02-06T15:48:25.339Z,91.81
2023-02-06T15:50:55.585Z,91.58
2023-02-06T15:53:35.932Z,92.20
2023-02-06T15:56:05.306Z,91.02
2023-02-06T15:58:33.056Z,91.80
2023-02-06T16:01:01.267Z,91.88
2023-02-06T16:03:29.456Z,91.80
2023-02-06T16:05:57.742Z,92.19
2023-02-06T16:08:47.862Z,92.20
2023-02-06T16:11:34.288Z,92.38
2023-02-06T16:14:02.116Z,92.29
2023-02-06T16:16:29.174Z,92.52
2023-02-06T16:18:58.510Z,92.01
2023-02-06T16:21:31.206Z,92.59
2023-02-06T16:24:03.082Z,92.25
2023-02-06T16:26:49.100Z,92.19
2023-02-06T16:29:24.126Z,92.57
2023-02-06T16:32:12.565Z,92.81
2023-02-06T16:34:41.303Z,93.11
2023-02-06T16:37:19.844Z,93.17
2023-02-06T16:39:46.915Z,93.55
2023-02-06T16:42:21.595Z,93.37
2023-02-06T16:44:51.116Z,93.56
2023-02-06T16:47:19.800Z,93.90
2023-02-06T16:49:49.625Z,93.85
2023-02-06T16:52:19.304Z,93.86
2023-02-06T16:54:46.601Z,93.98
2023-02-06T16:57:19.272Z,93.88
2023-02-06T16:59:46.639Z,93.91
2023-02-06T17:02:14.122Z,94.07
2023-02-06T17:04:41.370Z,94.32
2023-02-06T17:07:13.073Z,94.47
2023-02-06T17:09:40.124Z,94.70
2023-02-06T17:12:11.766Z,94.72
2023-02-06T17:14:38.427Z,94.81
2023-02-06T17:17:05.334Z,94.81
2023-02-06T17:19:32.096Z,95.17
2023-02-06T17:21:58.783Z,95.10
2023-02-06T17:24:25.535Z,95.75
2023-02-06T17:26:52.262Z,95.81
2023-02-06T17:29:20.294Z,96.22
2023-02-06T17:31:48.083Z,96.40
2023-02-06T17:34:15.291Z,96.41
2023-02-06T17:36:43.155Z,96.44
2023-02-06T17:39:11.945Z,97.38
2023-02-06T17:41:39.586Z,97.31
2023-02-06T17:44:06.859Z,97.05
2023-02-06T17:46:33.540Z,96.82
2023-02-06T17:49:00.254Z,97.11
2023-02-06T17:51:27.117Z,97.19
2023-02-06T17:53:54.404Z,96.73
2023-02-06T17:56:21.574Z,96.94
2023-02-06T17:58:48.262Z,97.49
2023-02-06T18:01:16.862Z,97.54
2023-02-06T18:03:43.786Z,97.54
2023-02-06T18:06:11.541Z,97.97
2023-02-06T18:08:40.018Z,97.96
2023-02-06T18:11:11.595Z,97.78
2023-02-06T18:13:39.745Z,98.17
2023-02-06T18:16:07.274Z,98.12
2023-02-06T18:18:34.866Z,98.17
2023-02-06T18:21:01.820Z,97.96
2023-02-06T18:23:28.537Z,98.09
2023-02-06T18:26:00.361Z,98.14
2023-02-06T18:28:27.365Z,98.14
2023-02-06T18:30:54.683Z,98.15
2023-02-06T18:33:21.643Z,97.93
2023-02-06T18:35:51.016Z,98.05
2023-02-06T18:38:18.179Z,97.81
2023-02-06T18:40:47.972Z,98.08
2023-02-06T18:43:14.800Z,98.01
2023-02-06T18:45:42.593Z,97.93
2023-02-06T18:48:11.738Z,98.17
2023-02-06T18:50:39.514Z,98.33
2023-02-06T18:53:07.778Z,98.58
2023-02-06T18:55:37.192Z,99.07
2023-02-06T18:58:05.181Z,98.79
2023-02-06T19:00:34.444Z,99.38
2023-02-06T19:03:01.746Z,99.14
2023-02-06T19:05:30.618Z,99.35
2023-02-06T19:07:57.587Z,99.25
2023-02-06T19:10:25.847Z,99.42
2023-02-06T19:12:52.586Z,99.62
2023-02-06T19:15:20.062Z,99.64
2023-02-06T19:17:46.799Z,99.49
2023-02-06T19:20:14.365Z,99.79
2023-02-06T19:22:41.385Z,99.90
2023-02-06T19:25:10.883Z,99.69
2023-02-06T19:27:38.742Z,99.49
2023-02-06T19:30:07.843Z,99.84
2023-02-06T19:32:35.432Z,99.81
2023-02-06T19:35:02.512Z,99.88
2023-02-06T19:37:29.099Z,99.51
2023-02-06T19:39:56.330Z,100.00
2023-02-06T19:42:23.167Z,100.00
2023-02-06T19:44:51.896Z,100.00
2023-02-06T19:47:18.906Z,100.00
2023-02-06T19:49:45.550Z,100.00
2023-02-06T19:52:14.490Z,100.00
2023-02-06T19:54:41.524Z,100.00
2023-02-06T19:57:08.883Z,100.00
2023-02-06T19:59:35.812Z,100.00
2023-02-06T20:02:03.339Z,100.00
2023-02-06T20:04:32.306Z,100.00
2023-02-06T20:06:59.753Z,100.00
2023-02-06T20:09:28.380Z,100.00
2023-02-06T20:11:55.933Z,100.00
2023-02-06T20:14:24.168Z,100.00
2023-02-06T20:16:51.555Z,100.00
2023-02-06T20:19:20.226Z,100.00
2023-02-06T20:21:49.072Z,100.00
2023-02-06T20:24:21.855Z,100.00
2023-02-06T20:26:52.977Z,100.00
2023-02-06T20:29:29.161Z,100.00
2023-02-06T20:31:57.521Z,100.00
2023-02-06T20:34:24.483Z,100.00
2023-02-06T20:36:52.666Z,100.00
2023-02-06T20:39:20.241Z,100.00
2023-02-06T20:41:49.550Z,100.00
2023-02-06T20:44:18.134Z,100.00
2023-02-06T20:46:46.414Z,100.00
2023-02-06T20:49:17.768Z,100.00
2023-02-06T20:51:44.628Z,100.00
2023-02-06T20:54:11.625Z,100.00
2023-02-06T20:56:39.252Z,100.00
2023-02-06T20:59:06.489Z,100.00
2023-02-06T21:01:34.397Z,100.00
2023-02-06T21:04:03.833Z,100.00
2023-02-06T21:06:30.822Z,100.00
2023-02-06T21:09:00.209Z,100.00
2023-02-06T21:11:29.558Z,100.00
2023-02-06T21:13:58.468Z,100.00
2023-02-06T21:16:27.160Z,100.00
2023-02-06T21:18:55.083Z,100.00
2023-02-06T21:21:21.791Z,100.00
2023-02-06T21:23:48.544Z,100.00
2023-02-06T21:26:17.860Z,100.00
2023-02-06T21:28:46.249Z,100.00
2023-02-06T21:31:14.903Z,100.00
2023-02-06T21:33:41.571Z,100.00
2023-02-06T21:36:08.583Z,100.00
2023-02-06T21:38:36.478Z,100.00
2023-02-06T21:41:07.419Z,100.00
2023-02-06T21:43:34.991Z,100.00
2023-02-06T21:46:02.194Z,100.00
2023-02-06T21:48:30.490Z,100.00
2023-02-06T21:50:57.954Z,100.00
2023-02-06T21:53:25.235Z,100.00
2023-02-06T21:55:52.061Z,100.00
2023-02-06T21:58:19.668Z,100.00
2023-02-06T22:00:47.409Z,100.00
2023-02-06T22:03:14.977Z,100.00
2023-02-06T22:05:42.179Z,100.00
2023-02-06T22:08:11.782Z,100.00
2023-02-06T22:10:38.415Z,100.00
2023-02-06T22:13:05.970Z,100.00
2023-02-06T22:15:33.364Z,100.00
2023-02-06T22:18:00.250Z,100.00
2023-02-06T22:20:27.532Z,100.00
2023-02-06T22:22:54.972Z,100.00
2023-02-06T22:25:21.773Z,100.00
2023-02-06T22:27:48.642Z,100.00
2023-02-06T22:30:15.722Z,100.00
2023-02-06T22:32:43.165Z,100.00
2023-02-06T22:35:10.343Z,100.00
2023-02-06T22:37:38.438Z,100.00
2023-02-06T22:40:05.479Z,100.00
2023-02-06T22:42:32.286Z,100.00
2023-02-06T22:44:59.665Z,100.00
2023-02-06T22:47:26.407Z,100.00
2023-02-06T22:49:53.524Z,100.00
2023-02-06T22:52:39.429Z,100.00
2023-02-06T22:55:06.642Z,100.00
2023-02-06T22:57:35.329Z,100.00
2023-02-06T23:00:09.257Z,100.00
2023-02-06T23:02:37.447Z,100.00
2023-02-06T23:05:04.604Z,100.00
2023-02-06T23:07:31.781Z,100.00
2023-02-06T23:09:59.174Z,100.00
2023-02-06T23:12:25.934Z,100.00
2023-02-06T23:14:52.574Z,100.00
2023-02-06T23:17:19.540Z,100.00
2023-02-06T23:19:46.392Z,100.00
2023-02-06T23:22:13.547Z,100.00
2023-02-06T23:24:41.532Z,100.00
2023-02-06T23:27:08.531Z,100.00
2023-02-06T23:29:35.261Z,100.00
2023-02-06T23:32:02.223Z,100.00
2023-02-06T23:34:29.201Z,100.00
2023-02-06T23:36:56.184Z,100.00
2023-02-06T23:39:23.099Z,100.00
2023-02-06T23:41:50.140Z,100.00
2023-02-06T23:44:16.853Z,100.00
2023-02-06T23:46:43.713Z,100.00
2023-02-06T23:49:10.997Z,100.00
2023-02-06T23:51:40.315Z,100.00
2023-02-06T23:54:09.102Z,100.00
2023-02-06T23:56:36.528Z,100.00
2023-02-06T23:59:04.416Z,100.00
